Tallinn, Estonia
Current Conditions -  °F | °C
As of 1:50 PM on Saturday 25 Oct 2014 (Local Time) from EETN Reporting Station
Clear Clear  
Wind Chill: -1°   Ceiling: Unl
Heat Index:   Visibility: 6mi
Dew Point: -2°   Wind: 16mph
Humidity: 65%   Direction: 190°S
Pressure: 30.24"   Gusts: NA
Location:  59.44°N, 24.74°E
Report Text: EETN 251150Z 19014KT 150V220 CAVOK 04/M02 Q1024 NOSIG
Loading
Personal Weather Stations






























Interactive Weather Map
Tropical Storm Tracking
New forecast layout! Learn more

10-Day Weather Forecast

Advertisements
Track Severe Weather on mobile